Time;durP1;ratioP1;P1;durP2;ratioP2;P2;SDS_P1;SDS_P2;PMS_P1;PMS_P2;Temp;Humidity;BMP_temperature;BMP_pressure;BME280_temperature;BME280_humidity;BME280_pressure;Samples;Min_cycle;Max_cycle;Signal;HPM_P1;HPM_P2
2021/09/12 00:00:15;;;;;;;5.85;3.30;;;21.60;81.40;;;;;;5086386;28;20032;-63
2021/09/12 00:02:41;;;;;;;3.20;2.90;;;21.60;81.50;;;;;;5082752;28;20028;-63
2021/09/12 00:05:07;;;;;;;3.53;3.10;;;21.70;81.50;;;;;;5092173;28;20405;-62
2021/09/12 00:07:33;;;;;;;3.60;3.30;;;21.60;81.60;;;;;;5064745;28;20051;-63
2021/09/12 00:09:58;;;;;;;4.80;3.50;;;21.60;81.70;;;;;;5059617;28;20100;-62
2021/09/12 00:12:24;;;;;;;3.60;3.30;;;21.60;81.70;;;;;;5077958;28;20761;-63
2021/09/12 00:14:49;;;;;;;3.53;3.00;;;21.50;81.60;;;;;;5042355;28;20438;-63
2021/09/12 00:17:15;;;;;;;4.55;3.42;;;21.50;81.70;;;;;;5060545;28;20468;-63
2021/09/12 00:19:40;;;;;;;4.32;3.33;;;21.50;81.70;;;;;;5079411;28;20023;-63
2021/09/12 00:22:06;;;;;;;5.65;3.10;;;21.50;81.80;;;;;;5079731;28;20075;-63
2021/09/12 00:24:31;;;;;;;9.43;3.47;;;21.50;81.70;;;;;;5087224;28;20499;-63
2021/09/12 00:26:57;;;;;;;3.75;3.30;;;21.50;81.80;;;;;;5086519;28;20032;-63
2021/09/12 00:29:22;;;;;;;3.63;3.33;;;21.50;81.90;;;;;;5084020;28;20077;-63
2021/09/12 00:31:48;;;;;;;3.60;2.90;;;21.40;81.90;;;;;;5068754;28;20321;-62
2021/09/12 00:34:14;;;;;;;5.03;3.40;;;21.40;82.00;;;;;;5069261;28;20071;-63
2021/09/12 00:36:39;;;;;;;3.75;3.17;;;21.40;82.10;;;;;;5083846;28;20063;-63
2021/09/12 00:39:05;;;;;;;4.47;3.20;;;21.40;82.10;;;;;;5079599;28;20151;-63
2021/09/12 00:41:37;;;;;;;4.50;3.13;;;21.30;82.10;;;;;;5066590;28;20429;-62
2021/09/12 00:44:03;;;;;;;3.45;3.10;;;21.40;82.20;;;;;;5086888;28;20483;-63
2021/09/12 00:46:28;;;;;;;4.07;3.20;;;21.30;82.20;;;;;;5085844;28;20187;-62
2021/09/12 00:48:54;;;;;;;3.38;2.90;;;21.30;82.20;;;;;;5083023;28;20032;-63
2021/09/12 00:51:19;;;;;;;3.38;2.90;;;21.30;82.30;;;;;;5076369;28;20389;-62
2021/09/12 00:53:45;;;;;;;3.45;2.97;;;21.20;82.30;;;;;;5049992;28;20540;-62
2021/09/12 00:56:11;;;;;;;3.85;3.00;;;21.20;82.30;;;;;;5067068;28;20119;-62
2021/09/12 00:58:37;;;;;;;4.07;2.88;;;21.20;82.40;;;;;;5069631;28;20043;-62
2021/09/12 01:01:02;;;;;;;3.53;3.13;;;21.20;82.50;;;;;;5075712;28;20028;-62
2021/09/12 01:03:28;;;;;;;3.10;2.80;;;21.10;82.50;;;;;;5084328;28;20127;-62
2021/09/12 01:05:53;;;;;;;4.38;2.88;;;21.20;82.70;;;;;;5079459;28;20035;-62
2021/09/12 01:08:19;;;;;;;3.80;3.25;;;21.10;82.60;;;;;;5079495;28;20043;-61
2021/09/12 01:10:45;;;;;;;3.20;2.70;;;21.10;82.60;;;;;;5071201;28;20440;-62
2021/09/12 01:13:11;;;;;;;3.65;3.25;;;21.10;82.70;;;;;;5063033;28;20035;-62
2021/09/12 01:15:36;;;;;;;3.55;3.25;;;21.00;82.70;;;;;;5078123;28;20051;-62
2021/09/12 01:18:02;;;;;;;6.57;3.45;;;21.00;82.70;;;;;;5079414;28;20448;-62
2021/09/12 01:20:27;;;;;;;3.35;3.05;;;21.00;82.80;;;;;;5079637;28;20048;-62
2021/09/12 01:22:53;;;;;;;5.75;3.42;;;21.00;82.90;;;;;;5068071;28;20098;-62
2021/09/12 01:25:18;;;;;;;3.65;3.25;;;21.00;82.90;;;;;;5086037;28;20059;-62
2021/09/12 01:27:44;;;;;;;3.97;3.35;;;21.00;83.00;;;;;;5084613;28;20024;-62
2021/09/12 01:30:10;;;;;;;3.38;3.08;;;21.00;83.00;;;;;;5069503;28;20100;-62
2021/09/12 01:32:35;;;;;;;5.07;3.10;;;20.90;83.00;;;;;;5068758;28;20567;-62
2021/09/12 01:35:01;;;;;;;5.82;2.92;;;20.90;83.10;;;;;;5097804;28;20074;-62
2021/09/12 01:37:27;;;;;;;3.40;2.97;;;20.90;83.10;;;;;;5062927;28;20028;-62
2021/09/12 01:39:52;;;;;;;2.88;2.67;;;20.90;83.20;;;;;;5093294;28;20046;-62
2021/09/12 01:42:18;;;;;;;3.38;3.08;;;20.80;83.20;;;;;;5069614;28;20436;-62
2021/09/12 01:44:47;;;;;;;3.38;3.08;;;20.80;83.20;;;;;;5062675;28;20077;-62
2021/09/12 01:47:12;;;;;;;3.83;3.00;;;20.80;83.20;;;;;;5090346;28;20036;-62
2021/09/12 01:49:38;;;;;;;3.20;2.92;;;20.70;83.20;;;;;;5069706;28;20021;-62
2021/09/12 01:52:04;;;;;;;4.15;3.10;;;20.70;83.30;;;;;;5090448;28;20155;-62
2021/09/12 01:54:29;;;;;;;3.42;2.83;;;20.80;83.40;;;;;;5084132;28;20098;-62
2021/09/12 01:56:55;;;;;;;3.55;3.25;;;20.80;83.60;;;;;;5064646;28;20130;-62
2021/09/12 01:59:20;;;;;;;4.28;3.40;;;20.70;83.50;;;;;;5073446;28;20102;-62
2021/09/12 02:01:46;;;;;;;3.00;2.70;;;20.70;83.50;;;;;;5070480;28;20028;-62
2021/09/12 02:04:12;;;;;;;3.75;3.08;;;20.70;83.60;;;;;;5084160;28;20486;-62
2021/09/12 02:06:37;;;;;;;4.20;2.88;;;20.70;83.60;;;;;;5039193;28;20492;-62
2021/09/12 02:09:03;;;;;;;3.30;2.92;;;20.70;83.60;;;;;;5091471;28;20055;-62
2021/09/12 02:11:28;;;;;;;3.58;2.85;;;20.60;83.60;;;;;;5058384;28;20044;-62
2021/09/12 02:13:54;;;;;;;3.13;2.78;;;20.60;83.70;;;;;;5083489;28;20295;-62
2021/09/12 02:16:21;;;;;;;4.07;3.03;;;20.60;83.80;;;;;;5074386;28;20051;-62
2021/09/12 02:18:47;;;;;;;3.60;3.20;;;20.60;83.90;;;;;;5079220;28;20123;-62
2021/09/12 02:21:12;;;;;;;3.20;2.90;;;20.60;83.90;;;;;;5081931;28;20054;-62
2021/09/12 02:23:38;;;;;;;3.67;3.38;;;20.60;84.00;;;;;;5081785;28;20052;-62
2021/09/12 02:26:03;;;;;;;4.10;3.00;;;20.50;84.00;;;;;;5073122;28;20493;-62
2021/09/12 02:28:29;;;;;;;3.90;3.50;;;20.50;84.00;;;;;;5095605;28;20063;-62
2021/09/12 02:30:54;;;;;;;3.58;3.00;;;20.50;84.10;;;;;;5074204;28;20480;-62
2021/09/12 02:33:20;;;;;;;3.40;3.10;;;20.50;84.10;;;;;;5084256;28;20135;-62
2021/09/12 02:35:45;;;;;;;3.63;3.33;;;20.40;84.30;;;;;;5085833;28;20042;-62
2021/09/12 02:38:12;;;;;;;3.33;2.70;;;20.40;84.30;;;;;;5090427;28;20016;-61
2021/09/12 02:40:39;;;;;;;3.00;2.70;;;20.40;84.30;;;;;;5080999;28;20141;-62
2021/09/12 02:43:06;;;;;;;3.85;2.95;;;20.40;84.40;;;;;;5084438;28;20035;-62
2021/09/12 02:45:32;;;;;;;3.53;2.95;;;20.40;84.50;;;;;;5080277;28;20070;-62
2021/09/12 02:47:57;;;;;;;3.33;3.03;;;20.30;84.50;;;;;;5055520;28;20032;-62
2021/09/12 02:50:23;;;;;;;4.40;3.20;;;20.30;84.60;;;;;;5089284;28;20074;-62
2021/09/12 02:52:48;;;;;;;4.50;2.70;;;20.30;84.60;;;;;;5086793;28;20038;-62
2021/09/12 02:55:14;;;;;;;3.45;3.08;;;20.30;84.50;;;;;;5082058;28;20363;-62
2021/09/12 02:57:39;;;;;;;3.72;3.42;;;20.30;84.60;;;;;;5089124;28;20480;-62
2021/09/12 03:00:05;;;;;;;3.53;3.00;;;20.20;84.50;;;;;;5085074;28;20025;-62
2021/09/12 03:02:31;;;;;;;3.55;2.60;;;20.20;84.50;;;;;;5074624;28;20039;-62
2021/09/12 03:04:56;;;;;;;3.50;3.20;;;20.20;84.60;;;;;;5083713;28;20116;-62
2021/09/12 03:07:22;;;;;;;3.15;2.85;;;20.20;84.60;;;;;;5091047;28;20027;-62
2021/09/12 03:09:47;;;;;;;4.05;3.35;;;20.20;84.80;;;;;;5083857;28;20067;-62
2021/09/12 03:12:13;;;;;;;5.68;3.40;;;20.20;84.80;;;;;;5080509;28;20523;-62
2021/09/12 03:14:38;;;;;;;3.97;3.47;;;20.20;84.90;;;;;;5085486;28;20028;-62
2021/09/12 03:17:04;;;;;;;3.45;3.10;;;20.20;85.00;;;;;;5089023;28;20027;-62
2021/09/12 03:19:29;;;;;;;3.20;2.90;;;20.10;85.00;;;;;;5089410;28;20031;-62
2021/09/12 03:21:55;;;;;;;4.20;3.22;;;20.10;85.10;;;;;;5069926;28;20035;-62
2021/09/12 03:24:20;;;;;;;3.13;2.80;;;20.10;85.00;;;;;;5090888;28;20040;-62
2021/09/12 03:26:47;;;;;;;3.47;3.17;;;20.10;85.10;;;;;;5087349;28;20052;-62
2021/09/12 03:29:12;;;;;;;4.10;3.20;;;20.10;85.10;;;;;;5088834;28;20042;-62
2021/09/12 03:31:38;;;;;;;3.70;3.33;;;20.10;85.20;;;;;;5085479;28;20054;-62
2021/09/12 03:34:03;;;;;;;3.00;2.70;;;20.00;85.20;;;;;;5085612;28;20152;-62
2021/09/12 03:36:29;;;;;;;3.47;3.17;;;20.00;85.20;;;;;;5089165;28;20498;-62
2021/09/12 03:38:55;;;;;;;4.00;2.92;;;20.00;85.30;;;;;;5083019;28;20028;-62
2021/09/12 03:41:20;;;;;;;4.38;3.20;;;20.00;85.40;;;;;;5059947;28;20016;-62
2021/09/12 03:43:45;;;;;;;3.10;2.67;;;19.90;85.40;;;;;;5083640;28;20078;-61
2021/09/12 03:46:11;;;;;;;3.45;3.10;;;20.00;85.40;;;;;;5089440;28;20085;-62
2021/09/12 03:48:37;;;;;;;4.20;3.20;;;19.90;85.40;;;;;;5087571;28;20518;-62
2021/09/12 03:51:02;;;;;;;3.30;3.00;;;19.90;85.30;;;;;;5080106;28;20044;-62
2021/09/12 03:53:28;;;;;;;3.85;2.92;;;19.90;85.40;;;;;;5089706;28;20487;-62
2021/09/12 03:55:53;;;;;;;3.42;3.13;;;19.90;85.50;;;;;;5104086;28;20114;-62
2021/09/12 03:58:19;;;;;;;4.00;2.95;;;19.90;85.50;;;;;;5069024;28;20032;-62
2021/09/12 04:00:44;;;;;;;4.30;3.33;;;19.90;85.50;;;;;;5086517;28;20027;-62
2021/09/12 04:03:10;;;;;;;3.75;3.20;;;19.80;85.50;;;;;;5059650;28;20433;-62
2021/09/12 04:05:35;;;;;;;3.58;3.28;;;19.80;85.60;;;;;;5091722;28;20027;-62
2021/09/12 04:08:01;;;;;;;5.53;3.38;;;19.80;85.70;;;;;;5097754;28;20063;-62
2021/09/12 04:10:26;;;;;;;3.88;2.90;;;19.80;85.70;;;;;;5087416;28;20024;-62
2021/09/12 04:12:51;;;;;;;4.30;3.38;;;19.80;85.80;;;;;;5072117;28;20028;-62
2021/09/12 04:15:17;;;;;;;3.30;2.92;;;19.80;85.70;;;;;;5068940;28;20424;-62
2021/09/12 04:17:42;;;;;;;3.40;3.10;;;19.80;85.80;;;;;;5088964;28;20047;-62
2021/09/12 04:20:09;;;;;;;3.00;2.70;;;19.80;85.90;;;;;;5062249;28;20039;-62
2021/09/12 04:22:34;;;;;;;3.40;3.10;;;19.70;85.90;;;;;;5068449;28;20020;-62
2021/09/12 04:25:00;;;;;;;4.00;3.05;;;19.70;86.00;;;;;;5069980;28;20141;-62
2021/09/12 04:27:25;;;;;;;3.47;2.97;;;19.70;86.00;;;;;;5067168;28;20128;-62
2021/09/12 04:29:51;;;;;;;3.55;3.00;;;19.70;86.00;;;;;;5099262;28;20393;-62
2021/09/12 04:32:16;;;;;;;4.05;3.10;;;19.70;86.00;;;;;;5087386;28;20027;-62
2021/09/12 04:34:46;;;;;;;4.03;3.03;;;19.70;86.00;;;;;;5101102;28;20028;-62
2021/09/12 04:37:11;;;;;;;5.07;3.33;;;19.70;86.00;;;;;;5086590;28;20577;-62
2021/09/12 04:39:37;;;;;;;3.90;3.00;;;19.60;86.00;;;;;;5100190;28;20274;-62
2021/09/12 04:42:02;;;;;;;3.40;3.10;;;19.60;86.20;;;;;;5076038;28;20067;-62
2021/09/12 04:44:28;;;;;;;4.03;2.90;;;19.60;86.80;;;;;;5080790;28;20028;-62
2021/09/12 04:46:53;;;;;;;3.88;3.47;;;19.60;86.20;;;;;;5069707;28;20335;-61
2021/09/12 04:49:19;;;;;;;3.42;3.10;;;19.60;86.30;;;;;;5054567;28;20128;-62
2021/09/12 04:51:44;;;;;;;3.38;3.05;;;19.50;86.30;;;;;;5062140;28;20033;-62
2021/09/12 04:54:10;;;;;;;6.00;3.10;;;19.60;86.30;;;;;;5071578;28;20043;-62
2021/09/12 04:56:35;;;;;;;3.75;3.40;;;19.50;86.30;;;;;;5077798;28;20451;-62
2021/09/12 04:59:01;;;;;;;5.00;3.70;;;19.50;86.40;;;;;;5073593;28;20037;-62
2021/09/12 05:01:26;;;;;;;3.90;2.95;;;19.50;86.40;;;;;;5086256;28;20490;-62
2021/09/12 05:03:53;;;;;;;3.75;3.05;;;19.50;86.40;;;;;;5084647;28;20044;-62
2021/09/12 05:06:18;;;;;;;4.93;4.00;;;19.50;86.50;;;;;;5087247;28;20316;-62
2021/09/12 05:08:44;;;;;;;3.80;3.05;;;19.50;86.70;;;;;;5084637;28;20040;-62
2021/09/12 05:11:09;;;;;;;5.25;3.70;;;19.50;86.70;;;;;;5068624;28;20025;-62
2021/09/12 05:13:36;;;;;;;4.43;3.83;;;19.50;86.70;;;;;;5075359;28;20036;-62
2021/09/12 05:16:02;;;;;;;7.78;4.38;;;19.40;86.70;;;;;;5075193;28;22239;-62
2021/09/12 05:18:27;;;;;;;11.88;5.05;;;19.50;86.90;;;;;;5076436;28;20460;-62
2021/09/12 05:20:53;;;;;;;7.55;4.50;;;19.40;86.90;;;;;;5074561;28;20107;-62
2021/09/12 05:23:18;;;;;;;6.88;5.10;;;19.40;87.00;;;;;;5074556;28;20357;-62
2021/09/12 05:25:44;;;;;;;7.20;5.28;;;19.40;87.10;;;;;;5074857;28;20496;-62
2021/09/12 05:28:09;;;;;;;7.88;5.50;;;19.50;87.20;;;;;;5081320;28;20523;-62
2021/09/12 05:30:35;;;;;;;8.77;5.18;;;19.40;87.20;;;;;;5074268;28;20036;-62
2021/09/12 05:33:00;;;;;;;9.57;5.28;;;19.40;87.20;;;;;;5055364;28;20036;-62
2021/09/12 05:35:26;;;;;;;9.00;4.97;;;19.40;87.20;;;;;;5076961;28;20085;-62
2021/09/12 05:37:51;;;;;;;9.88;5.63;;;19.50;87.40;;;;;;5077641;28;20017;-62
2021/09/12 05:40:17;;;;;;;12.13;5.75;;;19.50;87.40;;;;;;5087282;28;20056;-62
2021/09/12 05:42:42;;;;;;;13.23;6.13;;;19.50;87.50;;;;;;5068723;28;20020;-62
2021/09/12 05:45:08;;;;;;;9.55;5.85;;;19.40;87.50;;;;;;5072949;28;20044;-62
2021/09/12 05:47:34;;;;;;;10.48;5.50;;;19.40;87.60;;;;;;5066586;28;20031;-62
2021/09/12 05:50:00;;;;;;;9.88;6.20;;;19.50;87.70;;;;;;5059928;28;20035;-62
2021/09/12 05:52:25;;;;;;;11.73;5.80;;;19.40;87.60;;;;;;5081430;28;20099;-62
2021/09/12 05:54:51;;;;;;;13.13;6.20;;;19.50;87.90;;;;;;5086854;28;20111;-61
2021/09/12 05:57:16;;;;;;;13.07;6.10;;;19.50;88.00;;;;;;5082451;28;20051;-62
2021/09/12 05:59:42;;;;;;;8.75;5.85;;;19.50;87.80;;;;;;5075610;28;20033;-62
2021/09/12 06:02:08;;;;;;;8.02;6.10;;;19.50;87.70;;;;;;5077609;28;20032;-62
2021/09/12 06:04:33;;;;;;;13.65;5.03;;;19.40;87.70;;;;;;5079725;28;20033;-62
2021/09/12 06:06:59;;;;;;;8.57;5.68;;;19.50;87.90;;;;;;5069486;28;20032;-62
2021/09/12 06:09:24;;;;;;;9.43;5.53;;;19.40;88.00;;;;;;5079033;28;20076;-62
2021/09/12 06:11:50;;;;;;;44.67;20.98;;;19.40;88.00;;;;;;5082072;28;20116;-62
2021/09/12 06:14:16;;;;;;;24.73;10.70;;;19.50;88.40;;;;;;5083986;28;20039;-62
2021/09/12 06:16:42;;;;;;;15.93;9.07;;;19.50;88.70;;;;;;5069834;28;20024;-62
2021/09/12 06:19:07;;;;;;;12.15;7.32;;;19.50;88.70;;;;;;5069593;28;20448;-62
2021/09/12 06:21:33;;;;;;;12.18;7.43;;;19.40;88.60;;;;;;5085998;28;20036;-62
2021/09/12 06:23:58;;;;;;;17.05;7.72;;;19.50;88.40;;;;;;5073802;28;20059;-62
2021/09/12 06:26:25;;;;;;;15.65;6.93;;;19.50;88.40;;;;;;5091013;28;20031;-62
2021/09/12 06:28:50;;;;;;;11.02;6.72;;;19.50;88.50;;;;;;5090644;28;20522;-62
2021/09/12 06:31:16;;;;;;;11.23;6.20;;;19.50;88.50;;;;;;5090608;28;20133;-62
2021/09/12 06:33:41;;;;;;;9.85;6.18;;;19.50;88.40;;;;;;5087729;28;20467;-62
2021/09/12 06:36:07;;;;;;;12.38;7.20;;;19.50;88.40;;;;;;5073846;28;20051;-62
2021/09/12 06:38:33;;;;;;;8.32;5.85;;;19.50;88.60;;;;;;5082091;28;20056;-62
2021/09/12 06:40:59;;;;;;;12.68;6.60;;;19.50;88.40;;;;;;5062977;28;20012;-62
2021/09/12 06:43:24;;;;;;;13.50;6.95;;;19.50;88.40;;;;;;5084702;28;20036;-62
2021/09/12 06:45:50;;;;;;;16.88;6.82;;;19.60;89.00;;;;;;5092458;28;20047;-62
2021/09/12 06:48:15;;;;;;;16.88;7.05;;;19.60;89.30;;;;;;5090558;28;20024;-62
2021/09/12 06:50:41;;;;;;;12.50;6.50;;;19.60;89.00;;;;;;5081747;28;20036;-62
2021/09/12 06:53:06;;;;;;;14.52;7.22;;;19.60;88.90;;;;;;5073117;28;20099;-62
2021/09/12 06:55:32;;;;;;;10.40;6.90;;;19.60;88.80;;;;;;5090168;28;20058;-62
2021/09/12 06:57:57;;;;;;;14.82;6.45;;;19.60;88.80;;;;;;5085329;28;20417;-62
2021/09/12 07:00:23;;;;;;;13.52;6.78;;;19.60;88.50;;;;;;5075955;28;20033;-62
2021/09/12 07:02:48;;;;;;;8.70;6.25;;;19.60;88.50;;;;;;5070148;28;20468;-62
2021/09/12 07:05:14;;;;;;;9.00;6.45;;;19.60;88.50;;;;;;5086685;28;20052;-62
2021/09/12 07:07:39;;;;;;;9.32;5.75;;;19.70;88.50;;;;;;5093147;28;20078;-62
2021/09/12 07:10:05;;;;;;;8.82;6.43;;;19.70;88.50;;;;;;5084683;28;20107;-62
2021/09/12 07:12:31;;;;;;;8.02;5.88;;;19.70;88.60;;;;;;5057266;28;20032;-62
2021/09/12 07:14:56;;;;;;;11.05;7.13;;;19.70;88.70;;;;;;5087962;28;20024;-62
2021/09/12 07:17:22;;;;;;;13.80;6.25;;;19.70;88.60;;;;;;5093814;28;20212;-62
2021/09/12 07:19:47;;;;;;;10.68;6.43;;;19.70;88.50;;;;;;5085140;28;20095;-61
2021/09/12 07:22:13;;;;;;;7.03;6.10;;;19.70;88.60;;;;;;5071163;28;20028;-62
2021/09/12 07:24:39;;;;;;;10.40;6.53;;;19.70;88.50;;;;;;5063272;28;20489;-62
2021/09/12 07:27:05;;;;;;;9.57;5.57;;;19.70;88.50;;;;;;5084456;28;20036;-62
2021/09/12 07:29:32;;;;;;;8.77;6.30;;;19.80;88.60;;;;;;5069438;28;20028;-62
2021/09/12 07:31:58;;;;;;;12.77;6.35;;;19.80;88.80;;;;;;5084485;28;20028;-62
2021/09/12 07:34:23;;;;;;;8.45;6.05;;;19.80;89.00;;;;;;5063241;28;20033;-62
2021/09/12 07:36:49;;;;;;;7.43;5.97;;;19.80;88.80;;;;;;5072480;28;20037;-62
2021/09/12 07:39:14;;;;;;;10.57;6.35;;;19.80;89.00;;;;;;5063922;28;20060;-62
2021/09/12 07:41:40;;;;;;;8.65;5.90;;;19.80;89.50;;;;;;5084751;28;20286;-62
2021/09/12 07:44:05;;;;;;;8.90;5.90;;;19.80;88.90;;;;;;5088300;28;20177;-61
2021/09/12 07:46:31;;;;;;;10.88;6.30;;;19.90;88.90;;;;;;5087926;28;20031;-62
2021/09/12 07:48:57;;;;;;;9.65;6.60;;;19.90;88.80;;;;;;5088094;28;20028;-62
2021/09/12 07:51:22;;;;;;;9.13;6.57;;;19.90;89.20;;;;;;5089890;28;20038;-66
2021/09/12 07:53:48;;;;;;;7.30;6.13;;;19.90;89.20;;;;;;5089050;28;20430;-62
2021/09/12 07:56:13;;;;;;;8.85;6.47;;;19.90;89.10;;;;;;5081405;28;20032;-63
2021/09/12 07:58:39;;;;;;;10.52;6.28;;;20.00;89.00;;;;;;5062992;28;20480;-63
2021/09/12 08:01:04;;;;;;;11.10;6.00;;;20.00;90.10;;;;;;5067944;28;20437;-62
2021/09/12 08:03:30;;;;;;;8.15;6.15;;;20.00;90.00;;;;;;5081137;28;20530;-62
2021/09/12 08:05:55;;;;;;;8.25;5.72;;;20.00;90.10;;;;;;5076336;28;20025;-62
2021/09/12 08:08:22;;;;;;;9.52;6.25;;;20.00;90.20;;;;;;5087309;28;20530;-62
2021/09/12 08:10:47;;;;;;;6.90;5.57;;;20.00;90.30;;;;;;5085856;28;20031;-62
2021/09/12 08:13:13;;;;;;;8.75;6.03;;;20.00;90.40;;;;;;5057551;28;20024;-62
2021/09/12 08:15:38;;;;;;;6.63;5.88;;;19.80;90.40;;;;;;5086309;28;20042;-61
2021/09/12 08:18:04;;;;;;;6.50;5.88;;;19.90;90.60;;;;;;5079739;28;20040;-63
2021/09/12 08:20:30;;;;;;;12.10;5.82;;;19.90;90.60;;;;;;5083110;28;20031;-62
2021/09/12 08:22:55;;;;;;;9.95;5.53;;;19.90;90.60;;;;;;5086479;28;20367;-61
2021/09/12 08:25:21;;;;;;;7.68;5.90;;;19.90;90.50;;;;;;5053050;28;20439;-62
2021/09/12 08:27:47;;;;;;;7.63;5.75;;;20.00;90.50;;;;;;5081162;28;20060;-62
2021/09/12 08:30:12;;;;;;;7.22;5.50;;;20.00;90.60;;;;;;5085065;28;20024;-62
2021/09/12 08:32:38;;;;;;;12.65;6.30;;;20.00;90.50;;;;;;5080046;28;20103;-62
2021/09/12 08:35:04;;;;;;;23.15;6.75;;;20.00;90.50;;;;;;5081937;28;20048;-62
2021/09/12 08:37:30;;;;;;;13.18;6.72;;;20.20;90.60;;;;;;5058476;28;20436;-62
2021/09/12 08:39:55;;;;;;;13.88;5.95;;;20.10;90.80;;;;;;5080524;28;20120;-62
2021/09/12 08:42:22;;;;;;;22.50;6.95;;;20.10;90.60;;;;;;5086236;28;20028;-62
2021/09/12 08:44:48;;;;;;;22.08;7.05;;;20.20;90.70;;;;;;5081775;28;20024;-62
2021/09/12 08:47:15;;;;;;;17.90;6.55;;;20.20;90.70;;;;;;5063034;28;20055;-62
2021/09/12 08:49:41;;;;;;;21.30;7.03;;;20.20;90.40;;;;;;5048217;28;20024;-62
2021/09/12 08:52:07;;;;;;;20.75;7.00;;;20.20;90.30;;;;;;5076305;28;20368;-62
2021/09/12 08:54:32;;;;;;;36.80;7.20;;;20.30;90.40;;;;;;5059835;28;20112;-62
2021/09/12 08:56:58;;;;;;;24.33;6.55;;;20.30;90.30;;;;;;5080162;28;20415;-62
2021/09/12 08:59:28;;;;;;;36.60;7.30;;;20.30;90.30;;;;;;5070146;28;20029;-62
2021/09/12 09:01:55;;;;;;;20.70;6.32;;;20.40;90.30;;;;;;5070632;28;20020;-63
2021/09/12 09:04:20;;;;;;;21.60;6.70;;;20.40;90.20;;;;;;5059808;28;20031;-62
2021/09/12 09:06:46;;;;;;;20.73;6.70;;;20.40;90.20;;;;;;5065716;28;20027;-62
2021/09/12 09:09:11;;;;;;;18.02;6.22;;;20.50;90.10;;;;;;5069443;28;20128;-62
2021/09/12 09:11:39;;;;;;;27.73;7.95;;;20.50;90.10;;;;;;5078542;28;20044;-62
2021/09/12 09:14:20;;;;;;;38.10;8.38;;;20.50;90.30;;;;;;5078158;28;20026;-62
2021/09/12 09:16:50;;;;;;;52.42;10.20;;;20.60;90.10;;;;;;5065568;28;20035;-62
2021/09/12 09:19:16;;;;;;;28.10;7.68;;;20.60;90.20;;;;;;5066150;28;20028;-62
2021/09/12 09:21:43;;;;;;;43.75;9.38;;;20.60;90.30;;;;;;5081378;28;20020;-62
2021/09/12 09:24:29;;;;;;;55.35;9.70;;;20.60;90.40;;;;;;5075418;28;20178;-61
2021/09/12 09:26:58;;;;;;;45.97;10.10;;;20.70;90.30;;;;;;5075443;28;20144;-62
2021/09/12 09:29:29;;;;;;;38.85;8.73;;;20.70;90.50;;;;;;5081818;28;20028;-62
2021/09/12 09:32:07;;;;;;;39.80;8.50;;;20.70;90.50;;;;;;5059917;28;20028;-62
2021/09/12 09:34:34;;;;;;;53.55;9.77;;;20.80;90.60;;;;;;5071945;28;20400;-62
2021/09/12 09:37:12;;;;;;;58.35;10.25;;;20.80;90.60;;;;;;5083809;28;20052;-62
2021/09/12 09:39:47;;;;;;;41.83;9.02;;;20.80;90.60;;;;;;5072875;28;20102;-62
2021/09/12 09:42:35;;;;;;;55.90;10.30;;;20.80;90.50;;;;;;5075628;28;20021;-62
2021/09/12 09:45:07;;;;;;;43.22;9.18;;;20.90;90.30;;;;;;5048287;28;20400;-62
2021/09/12 09:47:33;;;;;;;62.33;10.27;;;20.80;90.30;;;;;;5075874;28;20039;-64
2021/09/12 09:50:19;;;;;;;56.58;9.88;;;20.90;90.20;;;;;;5079387;28;20024;-62
2021/09/12 09:52:46;;;;;;;67.22;9.70;;;21.00;90.10;;;;;;5073183;28;20491;-62
2021/09/12 09:55:14;;;;;;;54.38;9.18;;;21.00;90.00;;;;;;5068156;28;20055;-62
2021/09/12 09:57:40;;;;;;;63.13;9.85;;;21.00;89.50;;;;;;5064147;28;20108;-62
2021/09/12 10:00:06;;;;;;;42.33;7.80;;;21.00;89.30;;;;;;5069355;28;20169;-62
2021/09/12 10:02:34;;;;;;;54.45;8.98;;;21.10;89.10;;;;;;5080238;28;20032;-62
2021/09/12 10:05:02;;;;;;;61.42;8.40;;;21.10;88.80;;;;;;5079320;28;20023;-63
2021/09/12 10:07:28;;;;;;;77.35;10.07;;;21.10;88.40;;;;;;5067698;28;20028;-62
2021/09/12 10:09:53;;;;;;;96.90;12.38;;;21.20;88.30;;;;;;5055183;28;20062;-62
2021/09/12 10:12:19;;;;;;;65.93;9.48;;;21.20;88.10;;;;;;5079953;28;20384;-62
2021/09/12 10:14:48;;;;;;;200.60;19.10;;;21.20;87.90;;;;;;5066214;28;20121;-62
2021/09/12 10:17:14;;;;;;;61.80;9.63;;;21.20;87.70;;;;;;5075764;28;20454;-62
2021/09/12 10:19:43;;;;;;;65.30;11.75;;;21.30;87.60;;;;;;5052044;28;20026;-63
2021/09/12 10:22:11;;;;;;;265.90;24.23;;;21.30;87.60;;;;;;5059581;28;20487;-62
2021/09/12 10:25:06;;;;;;;77.90;11.80;;;21.30;87.50;;;;;;5079427;28;20040;-62
2021/09/12 10:27:34;;;;;;;69.05;10.55;;;21.30;87.60;;;;;;5082102;28;20028;-62
2021/09/12 10:30:13;;;;;;;84.95;11.55;;;21.30;87.40;;;;;;5085531;28;20032;-62
2021/09/12 10:32:39;;;;;;;108.00;13.93;;;21.40;87.50;;;;;;5047552;28;20043;-62
2021/09/12 10:35:26;;;;;;;92.45;12.52;;;21.40;87.30;;;;;;5067384;28;20050;-62
2021/09/12 10:38:03;;;;;;;79.57;10.63;;;21.40;87.30;;;;;;5067231;28;20055;-62
2021/09/12 10:40:49;;;;;;;65.00;10.13;;;21.50;87.20;;;;;;5079115;28;20021;-63
2021/09/12 10:43:39;;;;;;;65.40;10.63;;;21.50;86.80;;;;;;5082394;28;20047;-62
2021/09/12 10:46:04;;;;;;;88.43;10.35;;;21.60;86.60;;;;;;5076193;28;20052;-61
2021/09/12 10:48:40;;;;;;;48.13;8.88;;;21.60;86.30;;;;;;5084704;28;20133;-62
2021/09/12 10:51:18;;;;;;;47.95;8.75;;;21.60;86.00;;;;;;5066852;28;20028;-62
2021/09/12 10:53:47;;;;;;;50.25;8.02;;;21.60;86.10;;;;;;5077148;28;20033;-62
2021/09/12 10:56:15;;;;;;;116.82;14.57;;;21.60;85.90;;;;;;5062614;28;20060;-63
2021/09/12 10:58:41;;;;;;;70.88;11.40;;;21.70;86.00;;;;;;5079405;28;20028;-62
2021/09/12 11:01:06;;;;;;;43.17;9.15;;;21.70;85.60;;;;;;5056787;28;20447;-62
2021/09/12 11:03:33;;;;;;;54.67;9.57;;;21.70;85.40;;;;;;5072720;28;20519;-62
2021/09/12 11:05:58;;;;;;;55.22;9.05;;;21.80;85.10;;;;;;5081819;28;20016;-63
2021/09/12 11:08:37;;;;;;;44.60;8.52;;;21.90;85.10;;;;;;5066502;28;20042;-62
2021/09/12 11:11:06;;;;;;;45.15;7.07;;;21.90;84.80;;;;;;5079894;28;20020;-63
2021/09/12 11:13:32;;;;;;;40.63;7.50;;;21.90;84.40;;;;;;5056849;28;20036;-62
2021/09/12 11:16:07;;;;;;;39.55;7.72;;;21.90;85.10;;;;;;5057357;28;20531;-62
2021/09/12 11:18:52;;;;;;;35.72;7.00;;;22.00;84.50;;;;;;5083202;28;20038;-62
2021/09/12 11:21:27;;;;;;;30.88;6.63;;;22.00;84.40;;;;;;5086208;28;20021;-62
2021/09/12 11:24:01;;;;;;;28.23;6.55;;;22.00;84.00;;;;;;5086636;28;20040;-62
2021/09/12 11:26:28;;;;;;;38.53;6.82;;;22.00;84.00;;;;;;5086393;28;20090;-62
2021/09/12 11:29:02;;;;;;;28.73;6.93;;;22.10;84.00;;;;;;5056410;28;20043;-62
2021/09/12 11:31:31;;;;;;;37.97;7.43;;;22.10;84.00;;;;;;5087644;28;20031;-63
2021/09/12 11:33:56;;;;;;;54.35;9.27;;;22.10;83.90;;;;;;5055054;28;20047;-62
2021/09/12 11:36:23;;;;;;;41.80;7.75;;;22.10;83.70;;;;;;5068308;28;20082;-62
2021/09/12 11:38:58;;;;;;;28.08;5.97;;;22.20;84.30;;;;;;5081126;28;20020;-62
2021/09/12 11:41:24;;;;;;;;;;;22.20;83.40;;;;;;5084191;28;20056;-62
2021/09/12 11:43:56;;;;;;;22.00;5.80;;;22.20;83.40;;;;;;5082700;28;19915;-62
2021/09/12 11:46:22;;;;;;;31.42;6.60;;;22.20;83.30;;;;;;5066176;28;20032;-62
2021/09/12 11:49:05;;;;;;;24.55;6.18;;;22.20;83.20;;;;;;5083813;28;20408;-62
2021/09/12 11:51:32;;;;;;;36.40;6.30;;;22.30;83.00;;;;;;5083725;28;20115;-62
2021/09/12 11:54:04;;;;;;;38.22;8.55;;;22.30;82.90;;;;;;5070938;28;20087;-63
2021/09/12 11:56:30;;;;;;;34.67;6.90;;;22.30;82.90;;;;;;5078068;28;20031;-62
2021/09/12 11:58:56;;;;;;;27.98;6.00;;;22.40;82.90;;;;;;5075396;28;20028;-66
2021/09/12 12:01:21;;;;;;;23.83;6.85;;;22.40;82.60;;;;;;5069960;28;20124;-62
2021/09/12 12:03:47;;;;;;;27.38;6.65;;;22.40;82.40;;;;;;5082183;28;20111;-62
2021/09/12 12:06:12;;;;;;;17.92;5.40;;;22.50;82.30;;;;;;5084204;28;20044;-62
2021/09/12 12:09:08;;;;;;;34.78;6.03;;;22.50;81.30;;;;;;5082688;28;20024;-62
2021/09/12 12:11:35;;;;;;;30.27;6.85;;;22.50;80.80;;;;;;5072451;28;20024;-62
2021/09/12 12:14:02;;;;;;;18.75;5.68;;;22.60;80.30;;;;;;5074184;28;20110;-62
2021/09/12 12:16:27;;;;;;;46.70;7.70;;;22.60;79.80;;;;;;5067920;28;20144;-62
2021/09/12 12:19:01;;;;;;;26.42;6.00;;;22.70;79.70;;;;;;5079937;28;20102;-62
2021/09/12 12:21:30;;;;;;;24.83;5.90;;;22.70;79.60;;;;;;5073973;28;20112;-62
2021/09/12 12:23:55;;;;;;;17.92;5.72;;;22.70;79.30;;;;;;5079386;28;20377;-63
2021/09/12 12:26:23;;;;;;;22.98;5.78;;;22.80;79.00;;;;;;5054385;28;20082;-62
2021/09/12 12:28:58;;;;;;;21.33;5.63;;;22.80;79.00;;;;;;5077770;28;20090;-62
2021/09/12 12:31:24;;;;;;;;;;;22.90;78.70;;;;;;5047763;28;20464;-63
2021/09/12 12:33:49;;;;;;;;;;;22.90;78.50;;;;;;5053662;28;19915;-62
2021/09/12 12:36:17;;;;;;;28.90;7.20;;;22.90;78.40;;;;;;5086406;28;19958;-61
2021/09/12 12:38:43;;;;;;;36.00;7.72;;;22.90;78.50;;;;;;5082583;28;20159;-61
2021/09/12 12:41:15;;;;;;;48.92;8.40;;;22.90;78.60;;;;;;5081511;28;20066;-61